createdAt,value
2023-04-22T00:02:25.026Z,13.40
2023-04-22T00:04:52.276Z,13.40
2023-04-22T00:07:19.207Z,13.30
2023-04-22T00:09:46.089Z,13.40
2023-04-22T00:12:13.290Z,13.30
2023-04-22T00:14:40.116Z,13.20
2023-04-22T00:17:07.251Z,13.20
2023-04-22T00:19:34.903Z,13.20
2023-04-22T00:22:02.186Z,13.20
2023-04-22T00:24:29.926Z,13.20
2023-04-22T00:26:56.821Z,13.10
2023-04-22T00:29:23.675Z,13.10
2023-04-22T00:31:50.809Z,13.10
2023-04-22T00:34:18.103Z,13.10
2023-04-22T00:36:46.162Z,13.10
2023-04-22T00:39:14.043Z,13.10
2023-04-22T00:41:40.957Z,13.00
2023-04-22T00:44:12.359Z,13.00
2023-04-22T00:46:40.174Z,12.90
2023-04-22T00:49:08.216Z,12.80
2023-04-22T00:51:35.483Z,12.80
2023-04-22T00:54:03.395Z,12.80
2023-04-22T00:56:31.677Z,12.80
2023-04-22T00:58:59.609Z,12.70
2023-04-22T01:01:27.255Z,12.70
2023-04-22T01:03:54.594Z,12.70
2023-04-22T01:06:24.166Z,12.60
2023-04-22T01:08:51.398Z,12.60
2023-04-22T01:11:18.894Z,12.50
2023-04-22T01:13:46.365Z,12.50
2023-04-22T01:16:13.756Z,12.50
2023-04-22T01:18:40.739Z,12.40
2023-04-22T01:21:07.809Z,12.40
2023-04-22T01:23:35.039Z,12.30
2023-04-22T01:26:02.049Z,12.30
2023-04-22T01:28:29.321Z,12.20
2023-04-22T01:30:56.588Z,12.20
2023-04-22T01:33:24.071Z,12.20
2023-04-22T01:35:51.168Z,12.10
2023-04-22T01:38:18.341Z,12.10
2023-04-22T01:40:45.253Z,12.10
2023-04-22T01:43:12.195Z,12.00
2023-04-22T01:45:39.171Z,12.00
2023-04-22T01:48:09.084Z,12.00
2023-04-22T01:50:36.073Z,12.00
2023-04-22T01:53:03.174Z,12.00
2023-04-22T01:55:30.958Z,11.90
2023-04-22T01:57:57.824Z,11.90
2023-04-22T02:00:24.671Z,11.90
2023-04-22T02:02:51.679Z,11.80
2023-04-22T02:05:18.718Z,11.70
2023-04-22T02:07:45.705Z,11.80
2023-04-22T02:10:12.828Z,11.80
2023-04-22T02:12:39.711Z,11.80
2023-04-22T02:15:07.271Z,11.80
2023-04-22T02:17:35.752Z,11.70
2023-04-22T02:20:04.839Z,11.70
2023-04-22T02:22:33.056Z,11.70
2023-04-22T02:24:59.857Z,11.70
2023-04-22T02:27:26.728Z,11.70
2023-04-22T02:29:53.553Z,11.70
2023-04-22T02:32:20.526Z,11.60
2023-04-22T02:34:48.375Z,11.60
2023-04-22T02:37:15.412Z,11.50
2023-04-22T02:39:42.506Z,11.50
2023-04-22T02:42:09.371Z,11.50
2023-04-22T02:44:36.237Z,11.40
2023-04-22T02:47:03.772Z,11.40
2023-04-22T02:49:30.766Z,11.30
2023-04-22T02:51:57.846Z,11.30
2023-04-22T02:54:24.846Z,11.20
2023-04-22T02:56:51.703Z,11.20
2023-04-22T02:59:18.551Z,11.10
2023-04-22T03:01:45.438Z,11.00
2023-04-22T03:04:14.291Z,11.00
2023-04-22T03:06:41.734Z,11.00
2023-04-22T03:09:08.627Z,10.90
2023-04-22T03:11:35.457Z,10.90
2023-04-22T03:14:02.276Z,10.90
2023-04-22T03:16:29.148Z,10.80
2023-04-22T03:18:56.068Z,10.80
2023-04-22T03:21:22.905Z,10.80
2023-04-22T03:23:49.968Z,10.80
2023-04-22T03:26:16.745Z,10.70
2023-04-22T03:28:43.639Z,10.70
2023-04-22T03:31:10.452Z,10.70
2023-04-22T03:33:37.443Z,10.70
2023-04-22T03:36:04.593Z,10.70
2023-04-22T03:38:31.415Z,10.70
2023-04-22T03:40:58.270Z,10.60
2023-04-22T03:43:25.737Z,10.60
2023-04-22T03:45:52.626Z,10.60
2023-04-22T03:48:19.676Z,10.60
2023-04-22T03:50:46.516Z,10.60
2023-04-22T03:53:13.470Z,10.50
2023-04-22T03:55:40.358Z,10.50
2023-04-22T03:58:07.225Z,10.50
2023-04-22T04:00:34.149Z,10.50
2023-04-22T04:03:01.100Z,10.50
2023-04-22T04:05:28.492Z,10.50
2023-04-22T04:07:56.599Z,10.50
2023-04-22T04:10:23.468Z,10.50
2023-04-22T04:12:50.478Z,10.50
2023-04-22T04:15:19.224Z,10.50
2023-04-22T04:17:46.208Z,10.50
2023-04-22T04:20:13.209Z,10.50
2023-04-22T04:22:40.233Z,10.50
2023-04-22T04:25:08.136Z,10.50
2023-04-22T04:27:35.050Z,10.50
2023-04-22T04:30:04.301Z,10.50
2023-04-22T04:32:34.256Z,10.60
2023-04-22T04:35:02.164Z,10.60
2023-04-22T04:37:29.075Z,10.60
2023-04-22T04:39:59.269Z,10.60
2023-04-22T04:42:26.181Z,10.70
2023-04-22T04:44:53.707Z,10.70
2023-04-22T04:47:22.630Z,10.70
2023-04-22T04:49:50.178Z,10.70
2023-04-22T04:52:17.153Z,10.70
2023-04-22T04:54:44.048Z,10.80
2023-04-22T04:57:10.877Z,10.80
2023-04-22T04:59:37.872Z,10.80
2023-04-22T05:02:04.957Z,10.80
2023-04-22T05:04:32.193Z,10.80
2023-04-22T05:06:59.170Z,10.80
2023-04-22T05:09:26.192Z,10.80
2023-04-22T05:11:53.017Z,10.80
2023-04-22T05:14:19.898Z,10.80
2023-04-22T05:16:46.959Z,10.90
2023-04-22T05:19:13.934Z,10.90
2023-04-22T05:21:40.720Z,10.90
2023-04-22T05:24:07.781Z,11.00
2023-04-22T05:26:34.763Z,11.00
2023-04-22T05:29:01.600Z,11.00
2023-04-22T05:31:29.107Z,11.10
2023-04-22T05:33:56.004Z,11.30
2023-04-22T05:36:22.877Z,11.20
2023-04-22T05:38:49.737Z,11.30
2023-04-22T05:41:16.822Z,11.40
2023-04-22T05:43:43.651Z,11.50
2023-04-22T05:46:10.766Z,11.60
2023-04-22T05:48:37.779Z,11.70
2023-04-22T05:51:04.869Z,11.80
2023-04-22T05:53:31.746Z,11.90
2023-04-22T05:55:59.266Z,12.00
2023-04-22T05:58:26.164Z,12.10
2023-04-22T06:00:53.050Z,12.20
2023-04-22T06:03:20.093Z,12.30
2023-04-22T06:05:47.216Z,12.50
2023-04-22T06:08:14.128Z,12.60
2023-04-22T06:10:40.962Z,12.70
2023-04-22T06:13:09.302Z,12.80
2023-04-22T06:15:36.320Z,12.90
2023-04-22T06:18:03.345Z,13.00
2023-04-22T06:20:32.680Z,13.10
2023-04-22T06:22:59.571Z,13.20
2023-04-22T06:25:26.445Z,13.40
2023-04-22T06:27:53.495Z,13.40
2023-04-22T06:30:21.113Z,13.60
2023-04-22T06:32:48.092Z,13.70
2023-04-22T06:35:15.022Z,13.90
2023-04-22T06:37:42.333Z,14.00
2023-04-22T06:40:11.119Z,14.20
2023-04-22T06:42:38.005Z,14.30
2023-04-22T06:45:05.565Z,14.50
2023-04-22T06:47:32.445Z,14.60
2023-04-22T06:49:59.421Z,14.80
2023-04-22T06:52:26.290Z,15.00
2023-04-22T06:54:53.371Z,15.10
2023-04-22T06:57:20.257Z,15.30
2023-04-22T06:59:47.404Z,15.40
2023-04-22T07:02:14.454Z,15.60
2023-04-22T07:04:41.608Z,15.70
2023-04-22T07:07:08.664Z,15.90
2023-04-22T07:09:36.201Z,16.00
2023-04-22T07:12:03.279Z,16.10
2023-04-22T07:14:30.213Z,16.30
2023-04-22T07:16:57.083Z,16.40
2023-04-22T07:19:24.120Z,16.60
2023-04-22T07:21:51.198Z,16.70
2023-04-22T07:24:18.022Z,16.80
2023-04-22T07:26:45.491Z,17.00
2023-04-22T07:29:14.931Z,17.20
2023-04-22T07:31:41.777Z,17.30
2023-04-22T07:34:10.697Z,17.50
2023-04-22T07:36:37.870Z,17.70
2023-04-22T07:39:04.750Z,17.90
2023-04-22T07:41:31.869Z,18.10
2023-04-22T07:43:58.691Z,18.20
2023-04-22T07:46:25.775Z,18.40
2023-04-22T07:48:52.858Z,18.60
2023-04-22T07:51:19.714Z,18.80
2023-04-22T07:53:46.637Z,19.00
2023-04-22T07:56:13.764Z,19.20
2023-04-22T07:58:40.690Z,19.40
2023-04-22T08:01:07.573Z,19.50
2023-04-22T08:03:34.697Z,19.70
2023-04-22T08:06:01.647Z,19.90
2023-04-22T08:08:28.526Z,20.10
2023-04-22T08:10:55.578Z,20.30
2023-04-22T08:13:22.389Z,20.60
2023-04-22T08:15:49.393Z,20.80
2023-04-22T08:18:16.338Z,21.10
2023-04-22T08:20:43.156Z,21.50
2023-04-22T08:23:10.752Z,21.90
2023-04-22T08:25:37.637Z,22.50
2023-04-22T08:28:04.564Z,23.00
2023-04-22T08:30:31.471Z,23.60
2023-04-22T08:32:58.314Z,24.10
2023-04-22T08:35:25.275Z,24.70
2023-04-22T08:37:52.145Z,25.30
2023-04-22T08:40:19.105Z,25.70
2023-04-22T08:42:46.999Z,26.10
2023-04-22T08:45:14.497Z,26.40
2023-04-22T08:47:42.823Z,26.70
2023-04-22T08:50:10.327Z,27.10
2023-04-22T08:52:37.975Z,27.50
2023-04-22T08:55:06.066Z,27.90
2023-04-22T08:57:35.827Z,28.20
2023-04-22T09:00:04.463Z,28.60
2023-04-22T09:02:33.340Z,28.80
2023-04-22T09:05:02.910Z,29.10
2023-04-22T09:07:31.569Z,29.50
2023-04-22T09:09:59.333Z,29.70
2023-04-22T09:12:26.552Z,29.90
2023-04-22T09:14:54.757Z,30.10
2023-04-22T09:17:38.143Z,30.30
2023-04-22T09:20:08.630Z,30.40
2023-04-22T09:22:45.677Z,30.70
2023-04-22T09:25:32.865Z,30.80
2023-04-22T09:27:59.942Z,31.10
2023-04-22T09:30:36.535Z,31.40
2023-04-22T09:33:07.029Z,31.80
2023-04-22T09:35:39.941Z,32.10
2023-04-22T09:38:11.460Z,32.50
2023-04-22T09:40:43.729Z,32.70
2023-04-22T09:43:10.835Z,32.90
2023-04-22T09:45:41.196Z,33.10
2023-04-22T09:48:11.883Z,33.30
2023-04-22T09:50:45.346Z,33.50
2023-04-22T09:53:16.287Z,33.70
2023-04-22T09:55:50.077Z,33.80
2023-04-22T09:58:20.792Z,34.00
2023-04-22T10:00:57.122Z,34.10
2023-04-22T10:03:24.415Z,34.30
2023-04-22T10:05:51.414Z,34.50
2023-04-22T10:08:18.621Z,34.70
2023-04-22T10:10:45.938Z,34.80
2023-04-22T10:13:13.026Z,34.90
2023-04-22T10:15:45.840Z,35.00
2023-04-22T10:18:19.678Z,35.10
2023-04-22T10:20:48.939Z,35.30
2023-04-22T10:23:20.220Z,35.50
2023-04-22T10:25:54.764Z,35.80
2023-04-22T10:28:27.620Z,36.00
2023-04-22T10:30:54.584Z,36.30
2023-04-22T10:33:21.484Z,36.50
2023-04-22T10:36:18.216Z,36.60
2023-04-22T10:38:51.049Z,36.70
2023-04-22T10:41:24.638Z,36.80
2023-04-22T10:44:06.370Z,36.80
2023-04-22T10:46:34.467Z,36.90
2023-04-22T10:49:13.325Z,37.00
2023-04-22T10:51:51.095Z,37.10
2023-04-22T10:54:32.505Z,37.30
2023-04-22T10:57:06.759Z,37.40
2023-04-22T10:59:42.388Z,37.60
2023-04-22T11:02:13.123Z,37.50
2023-04-22T11:04:40.700Z,37.30
2023-04-22T11:07:29.643Z,37.00
2023-04-22T11:10:05.309Z,36.80
2023-04-22T11:12:43.915Z,36.60
2023-04-22T11:15:18.243Z,36.50
2023-04-22T11:17:54.314Z,36.50
2023-04-22T11:20:21.770Z,36.40
2023-04-22T11:22:57.237Z,36.40
2023-04-22T11:25:26.326Z,36.30
2023-04-22T11:27:55.143Z,36.20
2023-04-22T11:30:25.519Z,35.90
2023-04-22T11:32:57.232Z,35.40
2023-04-22T11:35:31.643Z,34.90
2023-04-22T11:38:08.596Z,34.30
2023-04-22T11:40:38.954Z,33.70
2023-04-22T11:43:09.805Z,33.20
2023-04-22T11:45:39.109Z,32.70
2023-04-22T11:48:08.847Z,32.20
2023-04-22T11:50:39.674Z,31.80
2023-04-22T11:53:20.886Z,31.20
2023-04-22T11:55:53.661Z,30.70
2023-04-22T11:58:28.188Z,30.30
2023-04-22T12:00:58.476Z,29.80
2023-04-22T12:03:28.809Z,29.50
2023-04-22T12:06:03.203Z,29.10
2023-04-22T12:08:44.327Z,28.80
2023-04-22T12:11:12.353Z,28.50
2023-04-22T12:13:40.313Z,28.30
2023-04-22T12:16:12.923Z,28.10
2023-04-22T12:18:48.410Z,27.90
2023-04-22T12:24:11.286Z,27.60
2023-04-22T12:26:38.174Z,27.50
2023-04-22T12:29:05.115Z,27.30
2023-04-22T12:31:32.152Z,27.10
2023-04-22T12:34:00.270Z,27.10
2023-04-22T12:36:27.556Z,27.00
2023-04-22T12:38:54.466Z,26.90
2023-04-22T12:41:22.925Z,26.80
2023-04-22T12:43:49.869Z,26.70
2023-04-22T12:46:17.090Z,26.80
2023-04-22T12:48:43.900Z,26.70
2023-04-22T12:51:10.766Z,26.70
2023-04-22T12:53:37.759Z,26.70
2023-04-22T12:56:04.869Z,26.70
2023-04-22T12:58:31.750Z,26.70
2023-04-22T13:00:58.572Z,26.80
2023-04-22T13:03:25.653Z,26.90
2023-04-22T13:05:53.038Z,27.00
2023-04-22T13:08:19.876Z,27.10
2023-04-22T13:10:46.683Z,27.30
2023-04-22T13:15:43.457Z,27.40
2023-04-22T13:18:10.300Z,27.50
2023-04-22T13:20:37.256Z,27.50
2023-04-22T13:23:04.819Z,27.60
2023-04-22T13:25:32.065Z,27.80
2023-04-22T13:27:58.926Z,27.90
2023-04-22T13:30:25.849Z,28.10
2023-04-22T13:32:52.785Z,28.20
2023-04-22T13:35:19.745Z,28.30
2023-04-22T13:37:47.057Z,28.40
2023-04-22T13:40:14.006Z,28.50
2023-04-22T13:42:40.996Z,28.60
2023-04-22T13:45:08.719Z,28.70
2023-04-22T13:47:36.103Z,28.70
2023-04-22T13:50:03.366Z,28.80
2023-04-22T13:52:30.258Z,29.00
2023-04-22T13:54:57.222Z,29.20
2023-04-22T13:57:24.113Z,29.40
2023-04-22T13:59:50.931Z,29.70
2023-04-22T14:02:18.165Z,30.10
2023-04-22T14:04:45.133Z,30.40
2023-04-22T14:07:13.079Z,30.90
2023-04-22T14:09:40.310Z,31.30
2023-04-22T14:12:08.934Z,31.80
2023-04-22T14:14:35.777Z,32.10
2023-04-22T14:17:03.039Z,32.50
2023-04-22T14:19:30.626Z,32.90
2023-04-22T14:21:58.086Z,33.40
2023-04-22T14:24:25.185Z,33.90
2023-04-22T14:26:52.814Z,34.50
2023-04-22T14:29:20.007Z,35.20
2023-04-22T14:31:46.936Z,35.80
2023-04-22T14:34:13.806Z,36.30
2023-04-22T14:36:40.729Z,36.70
2023-04-22T14:39:07.584Z,37.10
2023-04-22T14:41:35.417Z,37.50
2023-04-22T14:44:02.286Z,37.80
2023-04-22T14:46:30.434Z,38.10
2023-04-22T14:48:57.364Z,38.40
2023-04-22T14:51:24.495Z,38.60
2023-04-22T14:53:51.557Z,38.80
2023-04-22T14:56:19.140Z,38.90
2023-04-22T14:58:46.461Z,39.00
2023-04-22T15:01:13.426Z,39.10
2023-04-22T15:03:40.688Z,39.10
2023-04-22T15:06:07.722Z,39.10
2023-04-22T15:08:34.566Z,39.10
2023-04-22T15:11:01.423Z,38.90
2023-04-22T15:13:28.249Z,38.70
2023-04-22T15:15:55.269Z,38.30
2023-04-22T15:18:22.145Z,37.70
2023-04-22T15:20:49.012Z,37.00
2023-04-22T15:23:16.243Z,36.40
2023-04-22T15:25:43.122Z,35.90
2023-04-22T15:28:10.089Z,35.40
2023-04-22T15:30:37.007Z,34.90
2023-04-22T15:33:05.007Z,34.50
2023-04-22T15:35:32.465Z,34.00
2023-04-22T15:37:59.947Z,33.50
2023-04-22T15:40:26.880Z,33.10
2023-04-22T15:42:53.722Z,32.60
2023-04-22T15:45:21.325Z,32.30
2023-04-22T15:47:48.448Z,31.90
2023-04-22T15:50:15.403Z,31.60
2023-04-22T15:52:42.455Z,31.40
2023-04-22T15:55:10.006Z,31.10
2023-04-22T15:57:36.937Z,30.90
2023-04-22T16:00:11.765Z,30.70
2023-04-22T16:02:42.103Z,30.50
2023-04-22T16:05:11.754Z,30.20
2023-04-22T16:07:39.395Z,30.00
2023-04-22T16:10:07.588Z,29.80
2023-04-22T16:12:34.704Z,29.70
2023-04-22T16:15:02.083Z,29.50
2023-04-22T16:17:30.042Z,29.30
2023-04-22T16:19:57.026Z,29.10
2023-04-22T16:22:23.991Z,28.80
2023-04-22T16:24:51.344Z,28.60
2023-04-22T16:27:19.286Z,28.40
2023-04-22T16:29:46.454Z,28.20
2023-04-22T16:32:13.435Z,28.00
2023-04-22T16:34:40.367Z,27.90
2023-04-22T16:37:08.093Z,27.80
2023-04-22T16:39:35.303Z,27.70
2023-04-22T16:42:02.994Z,27.50
2023-04-22T16:44:30.130Z,27.40
2023-04-22T16:46:57.014Z,27.30
2023-04-22T16:49:24.023Z,27.10
2023-04-22T16:51:51.142Z,27.00
2023-04-22T16:54:18.223Z,26.80
2023-04-22T16:56:45.182Z,26.70
2023-04-22T16:59:12.103Z,26.60
2023-04-22T17:01:40.822Z,26.50
2023-04-22T17:04:08.714Z,26.40
2023-04-22T17:06:37.737Z,26.30
2023-04-22T17:09:07.323Z,26.20
2023-04-22T17:11:34.254Z,26.10
2023-04-22T17:14:01.162Z,26.00
2023-04-22T17:16:28.244Z,25.90
2023-04-22T17:18:55.361Z,25.80
2023-04-22T17:21:26.677Z,25.70
2023-04-22T17:23:53.629Z,25.80
2023-04-22T17:26:21.077Z,25.50
2023-04-22T17:28:48.354Z,25.40
2023-04-22T17:31:15.370Z,25.30
2023-04-22T17:33:42.437Z,25.20
2023-04-22T17:36:09.478Z,25.00
2023-04-22T17:38:36.366Z,25.00
2023-04-22T17:41:03.206Z,24.80
2023-04-22T17:43:30.148Z,24.70
2023-04-22T17:45:57.022Z,24.50
2023-04-22T17:48:23.912Z,24.50
2023-04-22T17:50:51.175Z,24.30
2023-04-22T17:53:18.129Z,24.20
2023-04-22T17:55:45.121Z,24.10
2023-04-22T17:58:12.096Z,24.00
2023-04-22T18:00:39.546Z,23.90
2023-04-22T18:03:06.699Z,23.80
2023-04-22T18:05:33.796Z,23.70
2023-04-22T18:08:04.366Z,23.60
2023-04-22T18:10:34.154Z,23.50
2023-04-22T18:13:01.079Z,23.50
2023-04-22T18:15:28.048Z,23.30
2023-04-22T18:17:55.087Z,23.10
2023-04-22T18:20:22.085Z,23.10
2023-04-22T18:22:53.791Z,22.90
2023-04-22T18:25:21.654Z,22.80
2023-04-22T18:27:50.566Z,22.80
2023-04-22T18:30:17.703Z,22.70
2023-04-22T18:32:44.645Z,22.60
2023-04-22T18:35:11.627Z,22.60
2023-04-22T18:37:38.537Z,22.50
2023-04-22T18:40:07.077Z,22.40
2023-04-22T18:42:34.382Z,22.40
2023-04-22T18:45:04.367Z,22.30
2023-04-22T18:47:32.002Z,22.30
2023-04-22T18:49:58.898Z,22.20
2023-04-22T18:52:25.969Z,22.10
2023-04-22T18:54:52.966Z,22.10
2023-04-22T18:57:19.836Z,22.00
2023-04-22T18:59:46.947Z,22.00
2023-04-22T19:02:14.079Z,21.90
2023-04-22T19:04:41.420Z,21.80
2023-04-22T19:07:08.592Z,21.80
2023-04-22T19:09:35.976Z,21.80
2023-04-22T19:12:03.144Z,21.70
2023-04-22T19:14:30.217Z,21.70
2023-04-22T19:16:57.166Z,21.60
2023-04-22T19:19:24.224Z,21.60
2023-04-22T19:21:51.146Z,21.50
2023-04-22T19:24:18.012Z,21.50
2023-04-22T19:26:45.553Z,21.40
2023-04-22T19:29:16.170Z,21.40
2023-04-22T19:31:46.578Z,21.40
2023-04-22T19:34:13.659Z,21.30
2023-04-22T19:36:40.689Z,21.30
2023-04-22T19:39:08.569Z,21.30
2023-04-22T19:41:35.505Z,21.30
2023-04-22T19:44:02.617Z,21.30
2023-04-22T19:46:29.659Z,21.20
2023-04-22T19:48:57.056Z,21.20
2023-04-22T19:51:24.225Z,21.20
2023-04-22T19:53:54.038Z,21.10
2023-04-22T19:56:21.208Z,21.10
2023-04-22T19:58:48.986Z,21.10
2023-04-22T20:01:16.198Z,21.10
2023-04-22T20:03:43.797Z,21.00
2023-04-22T20:06:12.994Z,21.00
2023-04-22T20:08:42.495Z,21.00
2023-04-22T20:11:11.626Z,20.90
2023-04-22T20:13:42.289Z,20.90
2023-04-22T20:16:09.655Z,20.80
2023-04-22T20:18:37.202Z,20.80
2023-04-22T20:21:05.370Z,20.80
2023-04-22T20:23:33.529Z,20.70
2023-04-22T20:26:02.872Z,20.70
2023-04-22T20:28:54.672Z,20.60
2023-04-22T20:31:23.438Z,20.60
2023-04-22T20:33:51.502Z,20.50
2023-04-22T20:36:24.093Z,20.50
2023-04-22T20:38:54.741Z,20.50
2023-04-22T20:41:24.622Z,20.40
2023-04-22T20:43:52.469Z,20.30
2023-04-22T20:46:21.446Z,20.30
2023-04-22T20:48:49.553Z,20.20
2023-04-22T20:51:16.333Z,20.20
2023-04-22T20:53:43.322Z,20.10
2023-04-22T20:56:10.148Z,20.10
2023-04-22T20:58:37.044Z,20.10
2023-04-22T21:01:04.278Z,20.00
2023-04-22T21:03:32.755Z,20.00
2023-04-22T21:06:01.041Z,19.90
2023-04-22T21:08:28.396Z,19.90
2023-04-22T21:10:56.648Z,19.90
2023-04-22T21:13:24.240Z,19.90
2023-04-22T21:16:05.506Z,19.80
2023-04-22T21:18:34.202Z,19.80
2023-04-22T21:21:04.038Z,19.80
2023-04-22T21:23:31.434Z,19.70
2023-04-22T21:26:02.251Z,19.70
2023-04-22T21:28:29.530Z,19.70
2023-04-22T21:30:56.819Z,19.70
2023-04-22T21:33:25.146Z,19.60
2023-04-22T21:35:52.433Z,19.60
2023-04-22T21:38:19.775Z,19.50
2023-04-22T21:40:50.035Z,19.50
2023-04-22T21:43:16.892Z,19.40
2023-04-22T21:45:43.689Z,19.40
2023-04-22T21:48:10.578Z,19.30
2023-04-22T21:50:37.595Z,19.30
2023-04-22T21:53:04.660Z,19.30
2023-04-22T21:55:31.885Z,19.30
2023-04-22T21:57:58.690Z,19.20
2023-04-22T22:00:25.889Z,19.20
2023-04-22T22:02:53.150Z,19.10
2023-04-22T22:05:20.541Z,19.20
2023-04-22T22:07:47.465Z,19.10
2023-04-22T22:10:19.095Z,19.00
2023-04-22T22:12:47.356Z,19.00
2023-04-22T22:15:18.498Z,19.00
2023-04-22T22:17:46.561Z,18.90
2023-04-22T22:20:20.167Z,18.90
2023-04-22T22:22:47.832Z,18.80
2023-04-22T22:25:16.408Z,18.80
2023-04-22T22:27:48.785Z,18.70
2023-04-22T22:30:18.200Z,18.70
2023-04-22T22:32:45.257Z,18.60
2023-04-22T22:35:12.469Z,18.60
2023-04-22T22:37:39.320Z,18.60
2023-04-22T22:40:06.912Z,18.50
2023-04-22T22:42:33.713Z,18.50
2023-04-22T22:45:00.608Z,18.50
2023-04-22T22:47:27.646Z,18.50
2023-04-22T22:49:54.570Z,18.50
2023-04-22T22:52:21.851Z,18.50
2023-04-22T22:54:49.983Z,18.40
2023-04-22T22:57:16.886Z,18.50
2023-04-22T22:59:43.741Z,18.50
2023-04-22T23:02:11.365Z,18.40
2023-04-22T23:04:39.409Z,18.40
2023-04-22T23:07:06.481Z,18.50
2023-04-22T23:09:33.344Z,18.50
2023-04-22T23:12:00.852Z,18.40
2023-04-22T23:14:28.181Z,18.40
2023-04-22T23:16:55.073Z,18.50
2023-04-22T23:19:22.755Z,18.50
2023-04-22T23:21:50.208Z,18.50
2023-04-22T23:24:17.518Z,18.50
2023-04-22T23:26:44.829Z,18.50
2023-04-22T23:29:12.225Z,18.50
2023-04-22T23:31:42.023Z,18.50
2023-04-22T23:34:09.874Z,18.50
2023-04-22T23:36:37.453Z,18.50
2023-04-22T23:39:09.669Z,18.40
2023-04-22T23:41:36.761Z,18.40
2023-04-22T23:44:03.614Z,18.40
2023-04-22T23:46:30.520Z,18.40
2023-04-22T23:48:57.566Z,18.40
2023-04-22T23:51:24.774Z,18.40
2023-04-22T23:53:51.622Z,18.30
2023-04-22T23:56:21.081Z,18.40
2023-04-22T23:58:51.553Z,18.30
